Aérodrome :
LOGIN :

S'inscrire | Disclaimer

   EN    FR    IT 

 










Légende :    VFR   VFR Marginal   IFR   IFR Intensif   IFR Très Intensif
Visi : 
Plafond : 
>= 8 km
>= 3000ft
5 à 8 km
1000 à 3000 ft
1500m à 5 km
500 à 1000 ft
800 à 1500m
200 à 500 ft
< 800m
< 200 ft
Symboles :   Orages  Brouillard  Fortes neiges  Fortes précipitations  Vent > 20 kt
SIGMETs :   Divers  Orages  Givrage  Turbulence  Onde Orograph.  Cendres Volcan.







- Altitude de l'aérodrome : 464 ft
- Code IATA : EVX
- Voir les cartes d'approche


LFOE - Evreux

DERNIER METAR :
  • 170800Z AUTO 06005KT 010V090 9999 BKN010 OVC050 17/14 Q1023 TEMPO 4000 BR BECMG BKN015 BKN050

METARs EXPIRÉS :
  • 170730Z AUTO 06006KT 9999 BKN008 OVC049 17/15 Q1022 TEMPO 4000 BR BECMG BKN015 BKN050
  • 170700Z AUTO /////KT 9999 FEW007 SCT015 OVC050 17/15 Q1022
  • 170630Z AUTO 03005KT 8000 FEW008 BKN012 OVC049 16/15 Q1022 BECMG BKN015
  • 170600Z AUTO 03003KT 6000 OVC006 16/15 Q1022 BECMG BKN015
  • 170530Z AUTO /////KT 5000 BR OVC004 16/15 Q1022

TAF AMD TAF LFOE
Valide du 17 à 07h jusqu'au 18 à 03h UTC


170708Z 1707/1803 30003KT 9999 BKN015 BKN050
TEMPO 1707/1709 4000 BR BKN006
BECMG 1710/1712 01010KT
Pas de NOTAMs connus pour ce terrain.



MET'MAP, la Météo Aéronautique d'un coup d'oeil ! - Copyright ORBIFLY Décembre 2007 - Disclaimer

ORBIFLY MET'MAP TEAM :

Programmation & Développement : Alexandra Zaïnal
Conception & Développement : Baudouin d'Aumeries
Co-Programmation & Développement : Marc-Olivier Méhu
Soutien technique & logistique : Manuel Goepfert

Contact : metmap@orbifly.com




SOURCES & CREDITS :

   NOAA